sensor_id;sensor_type;location;lat;lon;timestamp;pressure;altitude;pressure_sealevel;temperature;humidity
54592;BME280;40488;48.558;18.150;2022-11-18T00:01:18;98134.78;;;7.96;82.31
54592;BME280;40488;48.558;18.150;2022-11-18T00:03:47;98141.56;;;7.94;81.10
54592;BME280;40488;48.558;18.150;2022-11-18T00:06:17;98130.56;;;7.94;81.29
54592;BME280;40488;48.558;18.150;2022-11-18T00:08:46;98134.81;;;7.93;81.20
54592;BME280;40488;48.558;18.150;2022-11-18T00:11:15;98133.13;;;7.92;81.60
54592;BME280;40488;48.558;18.150;2022-11-18T00:14:05;98126.38;;;7.91;81.28
54592;BME280;40488;48.558;18.150;2022-11-18T00:16:49;98119.56;;;7.93;81.68
54592;BME280;40488;48.558;18.150;2022-11-18T00:19:18;98119.59;;;7.90;81.42
54592;BME280;40488;48.558;18.150;2022-11-18T00:21:47;98119.66;;;7.87;81.23
54592;BME280;40488;48.558;18.150;2022-11-18T00:24:15;98113.78;;;7.82;81.54
54592;BME280;40488;48.558;18.150;2022-11-18T00:26:44;98112.13;;;7.81;80.91
54592;BME280;40488;48.558;18.150;2022-11-18T00:29:12;98113.84;;;7.81;82.00
54592;BME280;40488;48.558;18.150;2022-11-18T00:31:41;98101.22;;;7.76;81.21
54592;BME280;40488;48.558;18.150;2022-11-18T00:34:12;98101.28;;;7.70;81.52
54592;BME280;40488;48.558;18.150;2022-11-18T00:36:41;98105.59;;;7.67;81.57
54592;BME280;40488;48.558;18.150;2022-11-18T00:39:11;98106.34;;;7.70;81.48
54592;BME280;40488;48.558;18.150;2022-11-18T00:41:41;98108.06;;;7.71;82.04
54592;BME280;40488;48.558;18.150;2022-11-18T00:44:19;98119.06;;;7.70;81.73
54592;BME280;40488;48.558;18.150;2022-11-18T00:46:47;98113.16;;;7.68;81.80
54592;BME280;40488;48.558;18.150;2022-11-18T00:49:17;98113.13;;;7.71;82.72
54592;BME280;40488;48.558;18.150;2022-11-18T00:51:45;98099.59;;;7.72;81.73
54592;BME280;40488;48.558;18.150;2022-11-18T00:54:14;98099.59;;;7.72;82.32
54592;BME280;40488;48.558;18.150;2022-11-18T00:56:42;98099.59;;;7.72;81.96
54592;BME280;40488;48.558;18.150;2022-11-18T00:59:10;98102.13;;;7.72;81.96
54592;BME280;40488;48.558;18.150;2022-11-18T01:01:39;98109.75;;;7.72;82.19
54592;BME280;40488;48.558;18.150;2022-11-18T01:04:07;98106.31;;;7.73;82.37
54592;BME280;40488;48.558;18.150;2022-11-18T01:06:37;98105.44;;;7.76;82.34
54592;BME280;40488;48.558;18.150;2022-11-18T01:09:05;98107.97;;;7.77;82.17
54592;BME280;40488;48.558;18.150;2022-11-18T01:11:34;98106.25;;;7.79;82.38
54592;BME280;40488;48.558;18.150;2022-11-18T01:14:12;98112.97;;;7.82;82.58
54592;BME280;40488;48.558;18.150;2022-11-18T01:16:41;98117.19;;;7.83;82.23
54592;BME280;40488;48.558;18.150;2022-11-18T01:19:09;98120.56;;;7.83;83.05
54592;BME280;40488;48.558;18.150;2022-11-18T01:21:39;98114.66;;;7.83;83.15
54592;BME280;40488;48.558;18.150;2022-11-18T01:24:07;98115.44;;;7.85;82.84
54592;BME280;40488;48.558;18.150;2022-11-18T01:26:36;98106.94;;;7.87;82.96
54592;BME280;40488;48.558;18.150;2022-11-18T01:29:04;98111.22;;;7.85;83.34
54592;BME280;40488;48.558;18.150;2022-11-18T01:31:32;98103.56;;;7.88;82.58
54592;BME280;40488;48.558;18.150;2022-11-18T01:34:01;98106.09;;;7.88;83.86
54592;BME280;40488;48.558;18.150;2022-11-18T01:36:29;98113.72;;;7.88;82.54
54592;BME280;40488;48.558;18.150;2022-11-18T01:38:59;98105.22;;;7.89;82.52
54592;BME280;40488;48.558;18.150;2022-11-18T01:41:28;98116.31;;;7.85;83.41
54592;BME280;40488;48.558;18.150;2022-11-18T01:43:57;98120.56;;;7.83;83.26
54592;BME280;40488;48.558;18.150;2022-11-18T01:46:26;98115.44;;;7.85;83.15
54592;BME280;40488;48.558;18.150;2022-11-18T01:48:56;98111.22;;;7.85;83.06
54592;BME280;40488;48.558;18.150;2022-11-18T01:51:28;98097.59;;;7.89;82.47
54592;BME280;40488;48.558;18.150;2022-11-18T01:53:58;98100.19;;;7.88;82.81
54592;BME280;40488;48.558;18.150;2022-11-18T01:56:30;98096.78;;;7.89;83.13
54592;BME280;40488;48.558;18.150;2022-11-18T01:59:00;98097.59;;;7.89;82.64
54592;BME280;40488;48.558;18.150;2022-11-18T02:01:30;98099.28;;;7.90;83.93
54592;BME280;40488;48.558;18.150;2022-11-18T02:03:58;98112.84;;;7.89;83.21
54592;BME280;40488;48.558;18.150;2022-11-18T02:06:27;98116.41;;;7.79;83.01
54592;BME280;40488;48.558;18.150;2022-11-18T02:08:56;98114.81;;;7.72;83.23
54592;BME280;40488;48.558;18.150;2022-11-18T02:11:24;98111.44;;;7.70;83.61
54592;BME280;40488;48.558;18.150;2022-11-18T02:14:04;98108.06;;;7.71;83.15
54592;BME280;40488;48.558;18.150;2022-11-18T02:16:37;98103.72;;;7.78;83.43
54592;BME280;40488;48.558;18.150;2022-11-18T02:19:10;98101.16;;;7.79;84.00
54592;BME280;40488;48.558;18.150;2022-11-18T02:21:49;98090.25;;;7.73;83.16
54592;BME280;40488;48.558;18.150;2022-11-18T02:24:26;98091.97;;;7.71;83.60
54592;BME280;40488;48.558;18.150;2022-11-18T02:29:38;98079.38;;;7.63;83.74
54592;BME280;40488;48.558;18.150;2022-11-18T02:32:10;98079.34;;;7.66;83.64
54592;BME280;40488;48.558;18.150;2022-11-18T02:34:42;98068.28;;;7.70;84.00
54592;BME280;40488;48.558;18.150;2022-11-18T02:37:15;98069.03;;;7.75;84.63
54592;BME280;40488;48.558;18.150;2022-11-18T02:39:46;98060.63;;;7.73;84.52
54592;BME280;40488;48.558;18.150;2022-11-18T02:42:19;98050.50;;;7.70;83.54
54592;BME280;40488;48.558;18.150;2022-11-18T02:44:51;98043.81;;;7.66;84.77
54592;BME280;40488;48.558;18.150;2022-11-18T02:47:20;98033.63;;;7.69;84.24
54592;BME280;40488;48.558;18.150;2022-11-18T02:49:51;98027.63;;;7.73;84.55
54592;BME280;40488;48.558;18.150;2022-11-18T02:52:21;98025.03;;;7.76;83.79
54592;BME280;40488;48.558;18.150;2022-11-18T02:54:51;98018.25;;;7.75;84.02
54592;BME280;40488;48.558;18.150;2022-11-18T02:57:21;98010.72;;;7.72;83.81
54592;BME280;40488;48.558;18.150;2022-11-18T02:59:52;98002.25;;;7.72;84.35
54592;BME280;40488;48.558;18.150;2022-11-18T03:02:20;97998.84;;;7.73;84.31
54592;BME280;40488;48.558;18.150;2022-11-18T03:04:50;97995.44;;;7.74;84.14
54592;BME280;40488;48.558;18.150;2022-11-18T03:07:23;97998.75;;;7.79;84.60
54592;BME280;40488;48.558;18.150;2022-11-18T03:09:53;98008.91;;;7.79;83.99
54592;BME280;40488;48.558;18.150;2022-11-18T03:12:24;98008.03;;;7.81;84.55
54592;BME280;40488;48.558;18.150;2022-11-18T03:15:02;98012.28;;;7.79;84.19
54592;BME280;40488;48.558;18.150;2022-11-18T03:17:39;98018.19;;;7.81;83.90
54592;BME280;40488;48.558;18.150;2022-11-18T03:20:13;98023.25;;;7.81;84.01
54592;BME280;40488;48.558;18.150;2022-11-18T03:22:43;98019.84;;;7.82;84.42
54592;BME280;40488;48.558;18.150;2022-11-18T03:25:16;98027.50;;;7.81;83.84
54592;BME280;40488;48.558;18.150;2022-11-18T03:27:48;98026.72;;;7.77;84.16
54592;BME280;40488;48.558;18.150;2022-11-18T03:30:21;98025.03;;;7.76;84.20
54592;BME280;40488;48.558;18.150;2022-11-18T03:32:51;98020.81;;;7.77;84.20
54592;BME280;40488;48.558;18.150;2022-11-18T03:35:23;98019.13;;;7.76;84.03
54592;BME280;40488;48.558;18.150;2022-11-18T03:37:54;98014.91;;;7.73;83.96
54592;BME280;40488;48.558;18.150;2022-11-18T03:40:25;98014.91;;;7.75;84.03
54592;BME280;40488;48.558;18.150;2022-11-18T03:42:55;98018.25;;;7.75;84.35
54592;BME280;40488;48.558;18.150;2022-11-18T03:45:27;98025.03;;;7.76;83.75
54592;BME280;40488;48.558;18.150;2022-11-18T03:47:59;98013.31;;;7.69;84.56
54592;BME280;40488;48.558;18.150;2022-11-18T03:50:30;98008.22;;;7.69;84.70
54592;BME280;40488;48.558;18.150;2022-11-18T03:53:00;98025.13;;;7.70;84.29
54592;BME280;40488;48.558;18.150;2022-11-18T03:55:29;98017.53;;;7.69;84.44
54592;BME280;40488;48.558;18.150;2022-11-18T03:58:02;98018.47;;;7.63;84.65
54592;BME280;40488;48.558;18.150;2022-11-18T04:00:37;98030.31;;;7.64;85.36
54592;BME280;40488;48.558;18.150;2022-11-18T04:03:08;98026.97;;;7.62;84.81
54592;BME280;40488;48.558;18.150;2022-11-18T04:05:38;98027.78;;;7.64;84.71
54592;BME280;40488;48.558;18.150;2022-11-18T04:08:09;98028.56;;;7.68;85.12
54592;BME280;40488;48.558;18.150;2022-11-18T04:10:40;98034.47;;;7.68;86.01
54592;BME280;40488;48.558;18.150;2022-11-18T04:13:10;98026.91;;;7.65;84.95
54592;BME280;40488;48.558;18.150;2022-11-18T04:15:42;98037.06;;;7.65;84.82
54592;BME280;40488;48.558;18.150;2022-11-18T04:18:11;98033.72;;;7.62;85.20
54592;BME280;40488;48.558;18.150;2022-11-18T04:20:39;98026.97;;;7.61;85.41
54592;BME280;40488;48.558;18.150;2022-11-18T04:23:09;98035.50;;;7.58;85.59
54592;BME280;40488;48.558;18.150;2022-11-18T04:25:37;98027.03;;;7.56;85.57
54592;BME280;40488;48.558;18.150;2022-11-18T04:28:07;98030.47;;;7.55;85.97
54592;BME280;40488;48.558;18.150;2022-11-18T04:30:36;98023.66;;;7.57;85.52
54592;BME280;40488;48.558;18.150;2022-11-18T04:33:06;98027.97;;;7.52;86.02
54592;BME280;40488;48.558;18.150;2022-11-18T04:35:34;98025.56;;;7.43;85.75
54592;BME280;40488;48.558;18.150;2022-11-18T04:38:02;98023.06;;;7.40;86.08
54592;BME280;40488;48.558;18.150;2022-11-18T04:40:31;98030.72;;;7.37;85.64
54592;BME280;40488;48.558;18.150;2022-11-18T04:42:59;98030.75;;;7.35;86.09
54592;BME280;40488;48.558;18.150;2022-11-18T04:45:27;98032.53;;;7.29;86.26
54592;BME280;40488;48.558;18.150;2022-11-18T04:47:56;98030.88;;;7.25;86.43
54592;BME280;40488;48.558;18.150;2022-11-18T04:50:31;98034.28;;;7.27;86.48
54592;BME280;40488;48.558;18.150;2022-11-18T04:52:59;98034.28;;;7.27;86.79
54592;BME280;40488;48.558;18.150;2022-11-18T04:55:27;98033.44;;;7.26;87.03
54592;BME280;40488;48.558;18.150;2022-11-18T04:57:56;98036.78;;;7.28;87.17
54592;BME280;40488;48.558;18.150;2022-11-18T05:00:24;98030.84;;;7.28;86.80
54592;BME280;40488;48.558;18.150;2022-11-18T05:02:54;98024.97;;;7.26;87.11
54592;BME280;40488;48.558;18.150;2022-11-18T05:05:22;98021.63;;;7.22;86.95
54592;BME280;40488;48.558;18.150;2022-11-18T05:07:52;98013.97;;;7.27;87.18
54592;BME280;40488;48.558;18.150;2022-11-18T05:10:20;98008.91;;;7.27;87.35
54592;BME280;40488;48.558;18.150;2022-11-18T05:12:48;98009.72;;;7.29;86.46
54592;BME280;40488;48.558;18.150;2022-11-18T05:15:16;98014.72;;;7.32;87.47
54592;BME280;40488;48.558;18.150;2022-11-18T05:17:45;98013.06;;;7.29;87.36
54592;BME280;40488;48.558;18.150;2022-11-18T05:20:14;98012.31;;;7.23;87.31
54592;BME280;40488;48.558;18.150;2022-11-18T05:22:42;98010.66;;;7.22;87.57
54592;BME280;40488;48.558;18.150;2022-11-18T05:25:12;98017.31;;;7.27;87.28
54592;BME280;40488;48.558;18.150;2022-11-18T05:27:41;98019.06;;;7.27;87.62
54592;BME280;40488;48.558;18.150;2022-11-18T05:30:09;98014.75;;;7.30;87.70
54592;BME280;40488;48.558;18.150;2022-11-18T05:32:38;98007.94;;;7.32;87.12
54592;BME280;40488;48.558;18.150;2022-11-18T05:35:06;98015.59;;;7.31;87.96
54592;BME280;40488;48.558;18.150;2022-11-18T05:37:35;98013.06;;;7.31;87.20
54592;BME280;40488;48.558;18.150;2022-11-18T05:40:04;98008.78;;;7.33;87.96
54592;BME280;40488;48.558;18.150;2022-11-18T05:42:34;98002.81;;;7.38;87.96
54592;BME280;40488;48.558;18.150;2022-11-18T05:45:12;97998.53;;;7.39;87.92
54592;BME280;40488;48.558;18.150;2022-11-18T05:47:42;97990.09;;;7.38;87.21
54592;BME280;40488;48.558;18.150;2022-11-18T05:50:24;97978.22;;;7.40;87.52
54592;BME280;40488;48.558;18.150;2022-11-18T05:52:52;97972.22;;;7.46;88.02
54592;BME280;40488;48.558;18.150;2022-11-18T05:55:21;97974.69;;;7.49;87.34
54592;BME280;40488;48.558;18.150;2022-11-18T05:57:52;97956.94;;;7.51;87.06
54592;BME280;40488;48.558;18.150;2022-11-18T06:00:21;97963.66;;;7.53;88.04
54592;BME280;40488;48.558;18.150;2022-11-18T06:02:49;97955.19;;;7.53;87.14
54592;BME280;40488;48.558;18.150;2022-11-18T06:05:19;97950.97;;;7.53;87.24
54592;BME280;40488;48.558;18.150;2022-11-18T06:07:49;97952.63;;;7.54;87.20
54592;BME280;40488;48.558;18.150;2022-11-18T06:10:19;97943.28;;;7.56;87.54
54592;BME280;40488;48.558;18.150;2022-11-18T06:12:50;97936.53;;;7.55;87.14
54592;BME280;40488;48.558;18.150;2022-11-18T06:15:21;97932.31;;;7.56;87.41
54592;BME280;40488;48.558;18.150;2022-11-18T06:17:51;97939.09;;;7.55;87.13
54592;BME280;40488;48.558;18.150;2022-11-18T06:20:21;97943.28;;;7.58;86.97
54592;BME280;40488;48.558;18.150;2022-11-18T06:22:50;97942.38;;;7.60;86.72
54592;BME280;40488;48.558;18.150;2022-11-18T06:25:21;97936.47;;;7.60;87.20
54592;BME280;40488;48.558;18.150;2022-11-18T06:27:50;97931.34;;;7.63;87.48
54592;BME280;40488;48.558;18.150;2022-11-18T06:30:20;97942.31;;;7.63;86.65
54592;BME280;40488;48.558;18.150;2022-11-18T06:32:50;97939.75;;;7.65;86.68
54592;BME280;40488;48.558;18.150;2022-11-18T06:35:18;97929.66;;;7.62;86.90
54592;BME280;40488;48.558;18.150;2022-11-18T06:37:48;97943.19;;;7.62;86.79
54592;BME280;40488;48.558;18.150;2022-11-18T06:40:17;97946.63;;;7.60;86.49
54592;BME280;40488;48.558;18.150;2022-11-18T06:42:46;97947.47;;;7.60;87.01
54592;BME280;40488;48.558;18.150;2022-11-18T06:45:25;97947.38;;;7.63;86.87
54592;BME280;40488;48.558;18.150;2022-11-18T06:47:55;97946.53;;;7.64;86.81
54592;BME280;40488;48.558;18.150;2022-11-18T06:50:23;97955.84;;;7.65;86.30
54592;BME280;40488;48.558;18.150;2022-11-18T06:52:51;97955.84;;;7.65;86.29
54592;BME280;40488;48.558;18.150;2022-11-18T06:55:19;97968.50;;;7.67;86.39
54592;BME280;40488;48.558;18.150;2022-11-18T06:57:48;97976.06;;;7.68;85.83
54592;BME280;40488;48.558;18.150;2022-11-18T07:00:17;97969.25;;;7.70;86.09
54592;BME280;40488;48.558;18.150;2022-11-18T07:02:47;97972.69;;;7.69;85.98
54592;BME280;40488;48.558;18.150;2022-11-18T07:05:15;97983.72;;;7.67;86.66
54592;BME280;40488;48.558;18.150;2022-11-18T07:07:44;97972.72;;;7.66;86.76
54592;BME280;40488;48.558;18.150;2022-11-18T07:10:12;97972.72;;;7.66;86.59
54592;BME280;40488;48.558;18.150;2022-11-18T07:12:41;97984.72;;;7.58;86.23
54592;BME280;40488;48.558;18.150;2022-11-18T07:15:09;97977.16;;;7.54;86.05
54592;BME280;40488;48.558;18.150;2022-11-18T07:17:37;97976.34;;;7.53;86.44
54592;BME280;40488;48.558;18.150;2022-11-18T07:20:08;97972.06;;;7.55;86.08
54592;BME280;40488;48.558;18.150;2022-11-18T07:22:36;97966.97;;;7.57;86.36
54592;BME280;40488;48.558;18.150;2022-11-18T07:25:05;97964.47;;;7.55;85.64
54592;BME280;40488;48.558;18.150;2022-11-18T07:27:33;97972.03;;;7.58;86.24
54592;BME280;40488;48.558;18.150;2022-11-18T07:30:02;97966.00;;;7.65;85.89
54592;BME280;40488;48.558;18.150;2022-11-18T07:32:31;97974.34;;;7.72;86.51
54592;BME280;40488;48.558;18.150;2022-11-18T07:35:00;97967.47;;;7.75;86.19
54592;BME280;40488;48.558;18.150;2022-11-18T07:37:29;97975.88;;;7.80;85.68
54592;BME280;40488;48.558;18.150;2022-11-18T07:39:58;97976.66;;;7.84;86.14
54592;BME280;40488;48.558;18.150;2022-11-18T07:42:26;97973.19;;;7.88;86.67
54592;BME280;40488;48.558;18.150;2022-11-18T07:44:54;97987.59;;;7.87;86.17
54592;BME280;40488;48.558;18.150;2022-11-18T07:47:23;97990.22;;;7.84;86.54
54592;BME280;40488;48.558;18.150;2022-11-18T07:49:51;97976.66;;;7.82;86.28
54592;BME280;40488;48.558;18.150;2022-11-18T07:52:20;97987.72;;;7.81;85.99
54592;BME280;40488;48.558;18.150;2022-11-18T07:54:50;97994.53;;;7.78;86.73
54592;BME280;40488;48.558;18.150;2022-11-18T07:57:18;97985.22;;;7.78;85.77
54592;BME280;40488;48.558;18.150;2022-11-18T07:59:47;97980.13;;;7.78;87.00
54592;BME280;40488;48.558;18.150;2022-11-18T08:02:15;97975.03;;;7.80;86.50
54592;BME280;40488;48.558;18.150;2022-11-18T08:04:43;97968.31;;;7.77;86.36
54592;BME280;40488;48.558;18.150;2022-11-18T08:07:12;97954.78;;;7.77;87.07
54592;BME280;40488;48.558;18.150;2022-11-18T08:09:40;97953.06;;;7.79;86.79
54592;BME280;40488;48.558;18.150;2022-11-18T08:12:10;97953.91;;;7.79;86.68
54592;BME280;40488;48.558;18.150;2022-11-18T08:14:38;97961.59;;;7.75;86.38
54592;BME280;40488;48.558;18.150;2022-11-18T08:17:07;97955.66;;;7.74;87.00
54592;BME280;40488;48.558;18.150;2022-11-18T08:19:35;97953.09;;;7.77;87.19
54592;BME280;40488;48.558;18.150;2022-11-18T08:22:03;97955.50;;;7.83;87.20
54592;BME280;40488;48.558;18.150;2022-11-18T08:24:31;97957.91;;;7.89;87.13
54592;BME280;40488;48.558;18.150;2022-11-18T08:27:00;97966.31;;;7.94;87.44
54592;BME280;40488;48.558;18.150;2022-11-18T08:29:30;97974.84;;;7.90;87.48
54592;BME280;40488;48.558;18.150;2022-11-18T08:31:58;97971.47;;;7.91;87.53
54592;BME280;40488;48.558;18.150;2022-11-18T08:34:27;97968.91;;;7.91;87.66
54592;BME280;40488;48.558;18.150;2022-11-18T08:36:56;97958.75;;;7.91;87.73
54592;BME280;40488;48.558;18.150;2022-11-18T08:39:24;97951.09;;;7.93;87.50
54592;BME280;40488;48.558;18.150;2022-11-18T08:41:53;97945.94;;;7.97;87.54
54592;BME280;40488;48.558;18.150;2022-11-18T08:44:22;97948.47;;;7.97;87.43
54592;BME280;40488;48.558;18.150;2022-11-18T08:46:51;97939.25;;;7.93;87.89
54592;BME280;40488;48.558;18.150;2022-11-18T08:49:19;97940.09;;;7.92;88.12
54592;BME280;40488;48.558;18.150;2022-11-18T08:51:48;97942.63;;;7.94;88.09
54592;BME280;40488;48.558;18.150;2022-11-18T08:54:16;97945.19;;;7.92;88.47
54592;BME280;40488;48.558;18.150;2022-11-18T08:56:44;97939.19;;;7.95;87.68
54592;BME280;40488;48.558;18.150;2022-11-18T08:59:13;97938.31;;;7.97;88.29
54592;BME280;40488;48.558;18.150;2022-11-18T09:01:41;97950.03;;;8.04;88.44
54592;BME280;40488;48.558;18.150;2022-11-18T09:04:11;97956.66;;;8.11;88.03
54592;BME280;40488;48.558;18.150;2022-11-18T09:06:40;97948.25;;;8.09;88.10
54592;BME280;40488;48.558;18.150;2022-11-18T09:09:08;97960.00;;;8.13;89.12
54592;BME280;40488;48.558;18.150;2022-11-18T09:11:37;97963.31;;;8.19;89.10
54592;BME280;40488;48.558;18.150;2022-11-18T09:14:06;97956.59;;;8.16;88.47
54592;BME280;40488;48.558;18.150;2022-11-18T09:16:54;97960.09;;;8.10;88.85
54592;BME280;40488;48.558;18.150;2022-11-18T09:19:24;97960.91;;;8.13;88.66
54592;BME280;40488;48.558;18.150;2022-11-18T09:22:12;97973.44;;;8.22;88.95
54592;BME280;40488;48.558;18.150;2022-11-18T09:24:41;97967.41;;;8.26;88.63
54592;BME280;40488;48.558;18.150;2022-11-18T09:27:10;97961.50;;;8.27;89.17
54592;BME280;40488;48.558;18.150;2022-11-18T09:29:43;97966.59;;;8.27;89.36
54592;BME280;40488;48.558;18.150;2022-11-18T09:32:11;97956.50;;;8.21;89.13
54592;BME280;40488;48.558;18.150;2022-11-18T09:34:41;97955.59;;;8.25;89.05
54592;BME280;40488;48.558;18.150;2022-11-18T09:37:10;97949.69;;;8.23;89.45
54592;BME280;40488;48.558;18.150;2022-11-18T09:39:38;97937.78;;;8.25;88.62
54592;BME280;40488;48.558;18.150;2022-11-18T09:42:11;97931.09;;;8.21;89.05
54592;BME280;40488;48.558;18.150;2022-11-18T09:47:36;97909.03;;;8.23;88.09
54592;BME280;40488;48.558;18.150;2022-11-18T09:50:08;97905.59;;;8.27;89.21
54592;BME280;40488;48.558;18.150;2022-11-18T09:53:01;97923.19;;;8.36;88.95
54592;BME280;40488;48.558;18.150;2022-11-18T09:55:31;97925.69;;;8.39;88.77
54592;BME280;40488;48.558;18.150;2022-11-18T09:58:01;97925.69;;;8.39;89.06
54592;BME280;40488;48.558;18.150;2022-11-18T10:00:33;97929.78;;;8.46;88.63
54592;BME280;40488;48.558;18.150;2022-11-18T10:03:02;97928.03;;;8.48;88.95
54592;BME280;40488;48.558;18.150;2022-11-18T10:05:37;97933.91;;;8.50;88.29
54592;BME280;40488;48.558;18.150;2022-11-18T10:08:14;97927.09;;;8.52;88.62
54592;BME280;40488;48.558;18.150;2022-11-18T10:10:47;97923.78;;;8.48;88.40
54592;BME280;40488;48.558;18.150;2022-11-18T10:13:26;97907.00;;;8.40;88.09
54592;BME280;40488;48.558;18.150;2022-11-18T10:15:59;97905.28;;;8.42;88.08
54592;BME280;40488;48.558;18.150;2022-11-18T10:18:32;97897.56;;;8.46;87.33
54592;BME280;40488;48.558;18.150;2022-11-18T10:21:26;97891.59;;;8.49;87.85
54592;BME280;40488;48.558;18.150;2022-11-18T10:24:01;97903.41;;;8.50;87.45
54592;BME280;40488;48.558;18.150;2022-11-18T10:26:33;97898.28;;;8.53;87.55
54592;BME280;40488;48.558;18.150;2022-11-18T10:29:02;97895.63;;;8.59;86.77
54592;BME280;40488;48.558;18.150;2022-11-18T10:31:34;97892.97;;;8.62;86.74
54592;BME280;40488;48.558;18.150;2022-11-18T10:34:03;97903.09;;;8.65;86.77
54592;BME280;40488;48.558;18.150;2022-11-18T10:36:33;97901.28;;;8.70;87.01
54592;BME280;40488;48.558;18.150;2022-11-18T10:39:04;97904.63;;;8.72;86.55
54592;BME280;40488;48.558;18.150;2022-11-18T10:41:37;97901.97;;;8.76;87.16
54592;BME280;40488;48.558;18.150;2022-11-18T10:44:08;97906.09;;;8.82;86.60
54592;BME280;40488;48.558;18.150;2022-11-18T10:46:54;97915.38;;;8.83;86.56
54592;BME280;40488;48.558;18.150;2022-11-18T10:49:23;97911.19;;;8.82;87.61
54592;BME280;40488;48.558;18.150;2022-11-18T10:52:06;97920.53;;;8.82;87.01
54592;BME280;40488;48.558;18.150;2022-11-18T10:54:36;97922.22;;;8.81;86.78
54592;BME280;40488;48.558;18.150;2022-11-18T10:57:05;97921.41;;;8.79;86.88
54592;BME280;40488;48.558;18.150;2022-11-18T10:59:35;97921.47;;;8.76;86.91
54592;BME280;40488;48.558;18.150;2022-11-18T11:02:13;97932.56;;;8.73;86.99
54592;BME280;40488;48.558;18.150;2022-11-18T11:04:42;97920.75;;;8.71;86.81
54592;BME280;40488;48.558;18.150;2022-11-18T11:07:19;97917.38;;;8.70;86.79
54592;BME280;40488;48.558;18.150;2022-11-18T11:12:38;97904.63;;;8.72;86.86
54592;BME280;40488;48.558;18.150;2022-11-18T11:15:13;97908.03;;;8.71;86.77
54592;BME280;40488;48.558;18.150;2022-11-18T11:17:44;97904.63;;;8.72;86.70
54592;BME280;40488;48.558;18.150;2022-11-18T11:20:35;97918.13;;;8.74;87.10
54592;BME280;40488;48.558;18.150;2022-11-18T11:23:08;97909.66;;;8.75;87.17
54592;BME280;40488;48.558;18.150;2022-11-18T11:25:39;97901.13;;;8.76;86.72
54592;BME280;40488;48.558;18.150;2022-11-18T11:28:31;97911.41;;;8.73;86.74
54592;BME280;40488;48.558;18.150;2022-11-18T11:31:08;97906.31;;;8.73;87.17
54592;BME280;40488;48.558;18.150;2022-11-18T11:33:41;97906.31;;;8.73;86.65
54592;BME280;40488;48.558;18.150;2022-11-18T11:36:16;97910.50;;;8.74;86.87
54592;BME280;40488;48.558;18.150;2022-11-18T11:38:52;97906.22;;;8.76;86.82
54592;BME280;40488;48.558;18.150;2022-11-18T11:41:34;97901.13;;;8.76;87.11
54592;BME280;40488;48.558;18.150;2022-11-18T11:44:11;97908.75;;;8.77;86.81
54592;BME280;40488;48.558;18.150;2022-11-18T11:46:47;97911.25;;;8.79;87.00
54592;BME280;40488;48.558;18.150;2022-11-18T11:49:37;97914.69;;;8.78;86.55
54592;BME280;40488;48.558;18.150;2022-11-18T11:52:12;97912.13;;;8.78;86.97
54592;BME280;40488;48.558;18.150;2022-11-18T11:54:45;97914.69;;;8.78;86.88
54592;BME280;40488;48.558;18.150;2022-11-18T11:57:20;97914.69;;;8.76;86.58
54592;BME280;40488;48.558;18.150;2022-11-18T11:59:56;97916.50;;;8.73;87.01
54592;BME280;40488;48.558;18.150;2022-11-18T12:02:48;97920.03;;;8.66;86.98
54592;BME280;40488;48.558;18.150;2022-11-18T12:05:21;97925.34;;;8.55;86.62
54592;BME280;40488;48.558;18.150;2022-11-18T12:07:50;97917.69;;;8.55;86.50
54592;BME280;40488;48.558;18.150;2022-11-18T12:10:27;97918.66;;;8.50;86.71
54592;BME280;40488;48.558;18.150;2022-11-18T12:13:01;97923.88;;;8.44;86.75
54592;BME280;40488;48.558;18.150;2022-11-18T12:15:39;97917.25;;;8.37;86.50
54592;BME280;40488;48.558;18.150;2022-11-18T12:18:10;97910.50;;;8.36;86.61
54592;BME280;40488;48.558;18.150;2022-11-18T12:20:44;97907.94;;;8.36;86.05
54592;BME280;40488;48.558;18.150;2022-11-18T12:23:15;97913.06;;;8.34;86.43
54592;BME280;40488;48.558;18.150;2022-11-18T12:25:51;97903.81;;;8.32;87.03
54592;BME280;40488;48.558;18.150;2022-11-18T12:28:25;97890.28;;;8.30;86.79
54592;BME280;40488;48.558;18.150;2022-11-18T12:33:37;97885.97;;;8.33;87.24
54592;BME280;40488;48.558;18.150;2022-11-18T12:36:09;97876.69;;;8.31;87.14
54592;BME280;40488;48.558;18.150;2022-11-18T12:38:52;97869.97;;;8.30;87.88
54592;BME280;40488;48.558;18.150;2022-11-18T12:44:15;97864.94;;;8.25;87.55
54592;BME280;40488;48.558;18.150;2022-11-18T12:46:50;97866.66;;;8.25;88.07
54592;BME280;40488;48.558;18.150;2022-11-18T12:51:59;97868.44;;;8.20;88.24
54592;BME280;40488;48.558;18.150;2022-11-18T12:54:29;97865.09;;;8.18;87.13
54592;BME280;40488;48.558;18.150;2022-11-18T12:56:59;97860.06;;;8.15;87.55
54592;BME280;40488;48.558;18.150;2022-11-18T12:59:31;97865.94;;;8.18;87.71
54592;BME280;40488;48.558;18.150;2022-11-18T13:02:00;97853.25;;;8.17;87.46
54592;BME280;40488;48.558;18.150;2022-11-18T13:04:29;97860.06;;;8.15;87.90
54592;BME280;40488;48.558;18.150;2022-11-18T13:06:57;97865.06;;;8.19;87.96
54592;BME280;40488;48.558;18.150;2022-11-18T13:09:28;97871.72;;;8.25;88.21
54592;BME280;40488;48.558;18.150;2022-11-18T13:12:03;97874.31;;;8.22;87.66
54592;BME280;40488;48.558;18.150;2022-11-18T13:14:38;97869.19;;;8.25;88.48
54592;BME280;40488;48.558;18.150;2022-11-18T13:17:24;97873.38;;;8.26;88.13
54592;BME280;40488;48.558;18.150;2022-11-18T13:20:02;97870.03;;;8.24;87.70
54592;BME280;40488;48.558;18.150;2022-11-18T13:22:30;97877.00;;;8.16;88.01
54592;BME280;40488;48.558;18.150;2022-11-18T13:27:48;97883.03;;;8.10;86.98
54592;BME280;40488;48.558;18.150;2022-11-18T13:30:20;97893.25;;;8.08;87.52
54592;BME280;40488;48.558;18.150;2022-11-18T13:32:49;97894.94;;;8.08;87.32
54592;BME280;40488;48.558;18.150;2022-11-18T13:35:19;97896.72;;;8.03;86.71
54592;BME280;40488;48.558;18.150;2022-11-18T13:37:49;97897.59;;;8.02;87.07
54592;BME280;40488;48.558;18.150;2022-11-18T13:40:20;97895.03;;;8.03;87.21